sensor_id;sensor_type;location;lat;lon;timestamp;P1;durP1;ratioP1;P2;durP2;ratioP2
22429;SDS011;11382;48.086;11.632;2024-02-14T00:01:39;2.35;;;1.75;;
22429;SDS011;11382;48.086;11.632;2024-02-14T00:04:07;3.95;;;1.67;;
22429;SDS011;11382;48.086;11.632;2024-02-14T00:06:37;2.20;;;1.30;;
22429;SDS011;11382;48.086;11.632;2024-02-14T00:09:07;4.57;;;1.60;;
22429;SDS011;11382;48.086;11.632;2024-02-14T00:11:35;4.15;;;1.60;;
22429;SDS011;11382;48.086;11.632;2024-02-14T00:14:03;2.55;;;1.40;;
22429;SDS011;11382;48.086;11.632;2024-02-14T00:16:33;2.35;;;1.50;;
22429;SDS011;11382;48.086;11.632;2024-02-14T00:19:02;3.00;;;1.35;;
22429;SDS011;11382;48.086;11.632;2024-02-14T00:21:30;3.10;;;1.67;;
22429;SDS011;11382;48.086;11.632;2024-02-14T00:24:00;1.98;;;1.40;;
22429;SDS011;11382;48.086;11.632;2024-02-14T00:26:30;3.80;;;1.55;;
22429;SDS011;11382;48.086;11.632;2024-02-14T00:28:58;1.80;;;1.20;;
22429;SDS011;11382;48.086;11.632;2024-02-14T00:31:26;2.45;;;1.52;;
22429;SDS011;11382;48.086;11.632;2024-02-14T00:33:55;5.75;;;1.77;;
22429;SDS011;11382;48.086;11.632;2024-02-14T00:36:23;3.22;;;1.77;;
22429;SDS011;11382;48.086;11.632;2024-02-14T00:38:52;3.33;;;1.23;;
22429;SDS011;11382;48.086;11.632;2024-02-14T00:41:20;3.13;;;1.48;;
22429;SDS011;11382;48.086;11.632;2024-02-14T00:43:50;4.38;;;1.50;;
22429;SDS011;11382;48.086;11.632;2024-02-14T00:46:18;2.10;;;1.20;;
22429;SDS011;11382;48.086;11.632;2024-02-14T00:48:46;4.82;;;1.38;;
22429;SDS011;11382;48.086;11.632;2024-02-14T00:51:14;1.63;;;1.40;;
22429;SDS011;11382;48.086;11.632;2024-02-14T00:53:42;2.17;;;1.20;;
22429;SDS011;11382;48.086;11.632;2024-02-14T00:56:10;2.75;;;1.45;;
22429;SDS011;11382;48.086;11.632;2024-02-14T00:58:38;5.68;;;1.60;;
22429;SDS011;11382;48.086;11.632;2024-02-14T01:01:08;2.05;;;1.60;;
22429;SDS011;11382;48.086;11.632;2024-02-14T01:03:37;4.63;;;1.67;;
22429;SDS011;11382;48.086;11.632;2024-02-14T01:06:05;2.95;;;1.30;;
22429;SDS011;11382;48.086;11.632;2024-02-14T01:08:33;2.70;;;1.55;;
22429;SDS011;11382;48.086;11.632;2024-02-14T01:11:02;2.42;;;1.27;;
22429;SDS011;11382;48.086;11.632;2024-02-14T01:13:31;1.48;;;1.30;;
22429;SDS011;11382;48.086;11.632;2024-02-14T01:15:59;5.32;;;1.48;;
22429;SDS011;11382;48.086;11.632;2024-02-14T01:18:28;2.78;;;1.30;;
22429;SDS011;11382;48.086;11.632;2024-02-14T01:20:56;4.90;;;1.30;;
22429;SDS011;11382;48.086;11.632;2024-02-14T01:23:27;1.45;;;1.17;;
22429;SDS011;11382;48.086;11.632;2024-02-14T01:25:55;2.30;;;1.10;;
22429;SDS011;11382;48.086;11.632;2024-02-14T01:28:23;2.25;;;1.30;;
22429;SDS011;11382;48.086;11.632;2024-02-14T01:30:52;2.90;;;1.27;;
22429;SDS011;11382;48.086;11.632;2024-02-14T01:33:20;5.25;;;1.40;;
22429;SDS011;11382;48.086;11.632;2024-02-14T01:35:49;4.90;;;1.80;;
22429;SDS011;11382;48.086;11.632;2024-02-14T01:38:17;4.10;;;1.55;;
22429;SDS011;11382;48.086;11.632;2024-02-14T01:40:45;2.65;;;1.10;;
22429;SDS011;11382;48.086;11.632;2024-02-14T01:43:14;1.88;;;1.23;;
22429;SDS011;11382;48.086;11.632;2024-02-14T01:45:42;1.35;;;1.10;;
22429;SDS011;11382;48.086;11.632;2024-02-14T01:48:10;1.05;;;0.95;;
22429;SDS011;11382;48.086;11.632;2024-02-14T01:50:39;2.28;;;1.13;;
22429;SDS011;11382;48.086;11.632;2024-02-14T01:53:08;1.90;;;1.33;;
22429;SDS011;11382;48.086;11.632;2024-02-14T01:55:37;6.15;;;1.20;;
22429;SDS011;11382;48.086;11.632;2024-02-14T01:58:05;1.73;;;0.93;;
22429;SDS011;11382;48.086;11.632;2024-02-14T02:00:33;2.92;;;1.10;;
22429;SDS011;11382;48.086;11.632;2024-02-14T02:03:08;1.95;;;1.10;;
22429;SDS011;11382;48.086;11.632;2024-02-14T02:05:37;2.15;;;1.23;;
22429;SDS011;11382;48.086;11.632;2024-02-14T02:08:07;2.75;;;1.35;;
22429;SDS011;11382;48.086;11.632;2024-02-14T02:10:36;3.58;;;1.30;;
22429;SDS011;11382;48.086;11.632;2024-02-14T02:13:05;1.40;;;1.13;;
22429;SDS011;11382;48.086;11.632;2024-02-14T02:15:33;1.50;;;1.00;;
22429;SDS011;11382;48.086;11.632;2024-02-14T02:18:01;1.65;;;0.80;;
22429;SDS011;11382;48.086;11.632;2024-02-14T02:20:32;1.10;;;0.68;;
22429;SDS011;11382;48.086;11.632;2024-02-14T02:23:02;3.28;;;1.20;;
22429;SDS011;11382;48.086;11.632;2024-02-14T02:25:31;1.70;;;0.85;;
22429;SDS011;11382;48.086;11.632;2024-02-14T02:27:59;2.42;;;0.98;;
22429;SDS011;11382;48.086;11.632;2024-02-14T02:30:27;0.93;;;0.70;;
22429;SDS011;11382;48.086;11.632;2024-02-14T02:32:56;2.47;;;1.08;;
22429;SDS011;11382;48.086;11.632;2024-02-14T02:35:25;2.33;;;1.05;;
22429;SDS011;11382;48.086;11.632;2024-02-14T02:37:53;2.20;;;0.90;;
22429;SDS011;11382;48.086;11.632;2024-02-14T02:40:23;2.72;;;0.95;;
22429;SDS011;11382;48.086;11.632;2024-02-14T02:42:51;1.05;;;0.70;;
22429;SDS011;11382;48.086;11.632;2024-02-14T02:45:19;1.00;;;0.80;;
22429;SDS011;11382;48.086;11.632;2024-02-14T02:47:47;2.35;;;1.10;;
22429;SDS011;11382;48.086;11.632;2024-02-14T02:50:18;2.97;;;1.20;;
22429;SDS011;11382;48.086;11.632;2024-02-14T02:52:48;1.65;;;1.05;;
22429;SDS011;11382;48.086;11.632;2024-02-14T02:55:16;2.17;;;1.13;;
22429;SDS011;11382;48.086;11.632;2024-02-14T02:57:46;1.63;;;1.13;;
22429;SDS011;11382;48.086;11.632;2024-02-14T03:00:14;2.80;;;1.10;;
22429;SDS011;11382;48.086;11.632;2024-02-14T03:02:43;3.58;;;1.23;;
22429;SDS011;11382;48.086;11.632;2024-02-14T03:05:12;4.43;;;1.15;;
22429;SDS011;11382;48.086;11.632;2024-02-14T03:07:44;2.67;;;1.20;;
22429;SDS011;11382;48.086;11.632;2024-02-14T03:10:14;2.85;;;1.67;;
22429;SDS011;11382;48.086;11.632;2024-02-14T03:12:46;3.00;;;0.90;;
22429;SDS011;11382;48.086;11.632;2024-02-14T03:15:15;1.98;;;1.42;;
22429;SDS011;11382;48.086;11.632;2024-02-14T03:17:43;1.65;;;1.10;;
22429;SDS011;11382;48.086;11.632;2024-02-14T03:20:12;1.83;;;1.10;;
22429;SDS011;11382;48.086;11.632;2024-02-14T03:22:43;2.10;;;1.00;;
22429;SDS011;11382;48.086;11.632;2024-02-14T03:25:13;0.93;;;0.80;;
22429;SDS011;11382;48.086;11.632;2024-02-14T03:27:44;2.05;;;0.90;;
22429;SDS011;11382;48.086;11.632;2024-02-14T03:30:15;2.55;;;0.95;;
22429;SDS011;11382;48.086;11.632;2024-02-14T03:32:45;1.80;;;1.00;;
22429;SDS011;11382;48.086;11.632;2024-02-14T03:35:14;2.40;;;1.17;;
22429;SDS011;11382;48.086;11.632;2024-02-14T03:37:42;1.23;;;0.90;;
22429;SDS011;11382;48.086;11.632;2024-02-14T03:40:14;1.85;;;0.95;;
22429;SDS011;11382;48.086;11.632;2024-02-14T03:42:43;2.28;;;1.20;;
22429;SDS011;11382;48.086;11.632;2024-02-14T03:45:15;1.05;;;0.70;;
22429;SDS011;11382;48.086;11.632;2024-02-14T03:47:43;2.10;;;1.25;;
22429;SDS011;11382;48.086;11.632;2024-02-14T03:50:11;1.35;;;0.70;;
22429;SDS011;11382;48.086;11.632;2024-02-14T03:52:39;2.75;;;0.98;;
22429;SDS011;11382;48.086;11.632;2024-02-14T03:55:08;2.47;;;0.98;;
22429;SDS011;11382;48.086;11.632;2024-02-14T03:57:39;1.88;;;0.93;;
22429;SDS011;11382;48.086;11.632;2024-02-14T04:00:08;1.48;;;0.80;;
22429;SDS011;11382;48.086;11.632;2024-02-14T04:02:40;1.80;;;1.02;;
22429;SDS011;11382;48.086;11.632;2024-02-14T04:05:08;2.03;;;1.10;;
22429;SDS011;11382;48.086;11.632;2024-02-14T04:07:36;2.63;;;1.10;;
22429;SDS011;11382;48.086;11.632;2024-02-14T04:10:05;0.85;;;0.80;;
22429;SDS011;11382;48.086;11.632;2024-02-14T04:12:34;1.85;;;0.90;;
22429;SDS011;11382;48.086;11.632;2024-02-14T04:15:02;2.38;;;1.17;;
22429;SDS011;11382;48.086;11.632;2024-02-14T04:17:30;1.85;;;1.05;;
22429;SDS011;11382;48.086;11.632;2024-02-14T04:20:00;2.17;;;1.27;;
22429;SDS011;11382;48.086;11.632;2024-02-14T04:22:28;0.93;;;0.80;;
22429;SDS011;11382;48.086;11.632;2024-02-14T04:24:56;0.75;;;0.70;;
22429;SDS011;11382;48.086;11.632;2024-02-14T04:27:24;0.90;;;0.75;;
22429;SDS011;11382;48.086;11.632;2024-02-14T04:29:52;2.50;;;1.00;;
22429;SDS011;11382;48.086;11.632;2024-02-14T04:32:21;1.13;;;0.88;;
22429;SDS011;11382;48.086;11.632;2024-02-14T04:34:49;1.00;;;0.60;;
22429;SDS011;11382;48.086;11.632;2024-02-14T04:37:18;2.03;;;1.08;;
22429;SDS011;11382;48.086;11.632;2024-02-14T04:39:46;1.13;;;0.75;;
22429;SDS011;11382;48.086;11.632;2024-02-14T04:42:15;1.77;;;0.80;;
22429;SDS011;11382;48.086;11.632;2024-02-14T04:44:43;1.80;;;1.00;;
22429;SDS011;11382;48.086;11.632;2024-02-14T04:47:12;3.47;;;0.90;;
22429;SDS011;11382;48.086;11.632;2024-02-14T04:49:41;2.35;;;0.85;;
22429;SDS011;11382;48.086;11.632;2024-02-14T04:52:09;0.82;;;0.77;;
22429;SDS011;11382;48.086;11.632;2024-02-14T04:54:41;1.50;;;0.80;;
22429;SDS011;11382;48.086;11.632;2024-02-14T04:57:09;1.73;;;0.80;;
22429;SDS011;11382;48.086;11.632;2024-02-14T04:59:38;1.73;;;0.80;;
22429;SDS011;11382;48.086;11.632;2024-02-14T05:02:06;1.55;;;0.82;;
22429;SDS011;11382;48.086;11.632;2024-02-14T05:04:34;2.00;;;0.93;;
22429;SDS011;11382;48.086;11.632;2024-02-14T05:07:04;1.23;;;0.80;;
22429;SDS011;11382;48.086;11.632;2024-02-14T05:09:33;1.63;;;0.90;;
22429;SDS011;11382;48.086;11.632;2024-02-14T05:12:02;0.98;;;0.80;;
22429;SDS011;11382;48.086;11.632;2024-02-14T05:14:37;4.40;;;1.10;;
22429;SDS011;11382;48.086;11.632;2024-02-14T05:17:07;1.20;;;0.98;;
22429;SDS011;11382;48.086;11.632;2024-02-14T05:19:35;1.75;;;1.05;;
22429;SDS011;11382;48.086;11.632;2024-02-14T05:22:03;1.13;;;0.75;;
22429;SDS011;11382;48.086;11.632;2024-02-14T05:24:32;1.50;;;1.20;;
22429;SDS011;11382;48.086;11.632;2024-02-14T05:27:03;1.85;;;0.80;;
22429;SDS011;11382;48.086;11.632;2024-02-14T05:29:32;1.10;;;0.88;;
22429;SDS011;11382;48.086;11.632;2024-02-14T05:32:02;0.98;;;0.73;;
22429;SDS011;11382;48.086;11.632;2024-02-14T05:34:31;1.10;;;0.75;;
22429;SDS011;11382;48.086;11.632;2024-02-14T05:37:00;2.00;;;0.82;;
22429;SDS011;11382;48.086;11.632;2024-02-14T05:39:28;6.32;;;1.02;;
22429;SDS011;11382;48.086;11.632;2024-02-14T05:41:57;2.20;;;0.90;;
22429;SDS011;11382;48.086;11.632;2024-02-14T05:44:26;2.97;;;0.70;;
22429;SDS011;11382;48.086;11.632;2024-02-14T05:46:56;1.92;;;1.17;;
22429;SDS011;11382;48.086;11.632;2024-02-14T05:49:24;1.50;;;1.17;;
22429;SDS011;11382;48.086;11.632;2024-02-14T05:51:53;2.50;;;0.85;;
22429;SDS011;11382;48.086;11.632;2024-02-14T05:54:22;1.90;;;0.90;;
22429;SDS011;11382;48.086;11.632;2024-02-14T05:56:51;0.93;;;0.80;;
22429;SDS011;11382;48.086;11.632;2024-02-14T05:59:19;1.33;;;1.00;;
22429;SDS011;11382;48.086;11.632;2024-02-14T06:01:49;2.35;;;1.20;;
22429;SDS011;11382;48.086;11.632;2024-02-14T06:04:17;1.65;;;0.80;;
22429;SDS011;11382;48.086;11.632;2024-02-14T06:06:45;1.60;;;1.00;;
22429;SDS011;11382;48.086;11.632;2024-02-14T06:09:13;1.98;;;1.08;;
22429;SDS011;11382;48.086;11.632;2024-02-14T06:11:41;1.40;;;0.90;;
22429;SDS011;11382;48.086;11.632;2024-02-14T06:14:10;2.35;;;0.85;;
22429;SDS011;11382;48.086;11.632;2024-02-14T06:16:38;0.82;;;0.80;;
22429;SDS011;11382;48.086;11.632;2024-02-14T06:19:08;1.58;;;0.98;;
22429;SDS011;11382;48.086;11.632;2024-02-14T06:21:37;2.30;;;1.30;;
22429;SDS011;11382;48.086;11.632;2024-02-14T06:24:05;1.15;;;0.95;;
22429;SDS011;11382;48.086;11.632;2024-02-14T06:26:33;1.20;;;0.95;;
22429;SDS011;11382;48.086;11.632;2024-02-14T06:29:02;1.65;;;1.45;;
22429;SDS011;11382;48.086;11.632;2024-02-14T06:31:33;2.40;;;1.33;;
22429;SDS011;11382;48.086;11.632;2024-02-14T06:34:01;2.72;;;1.23;;
22429;SDS011;11382;48.086;11.632;2024-02-14T06:36:30;1.70;;;1.20;;
22429;SDS011;11382;48.086;11.632;2024-02-14T06:38:58;2.35;;;1.15;;
22429;SDS011;11382;48.086;11.632;2024-02-14T06:41:27;3.30;;;1.30;;
22429;SDS011;11382;48.086;11.632;2024-02-14T06:43:56;5.97;;;1.60;;
22429;SDS011;11382;48.086;11.632;2024-02-14T06:46:24;1.45;;;1.20;;
22429;SDS011;11382;48.086;11.632;2024-02-14T06:48:52;3.38;;;1.60;;
22429;SDS011;11382;48.086;11.632;2024-02-14T06:51:21;1.95;;;1.08;;
22429;SDS011;11382;48.086;11.632;2024-02-14T06:53:51;4.13;;;1.35;;
22429;SDS011;11382;48.086;11.632;2024-02-14T06:56:19;0.82;;;0.80;;
22429;SDS011;11382;48.086;11.632;2024-02-14T06:58:47;3.20;;;1.20;;
22429;SDS011;11382;48.086;11.632;2024-02-14T07:01:18;1.80;;;1.10;;
22429;SDS011;11382;48.086;11.632;2024-02-14T07:03:48;2.85;;;1.38;;
22429;SDS011;11382;48.086;11.632;2024-02-14T07:06:17;1.42;;;1.10;;
22429;SDS011;11382;48.086;11.632;2024-02-14T07:08:45;4.05;;;1.30;;
22429;SDS011;11382;48.086;11.632;2024-02-14T07:11:16;2.78;;;1.20;;
22429;SDS011;11382;48.086;11.632;2024-02-14T07:13:44;3.00;;;1.52;;
22429;SDS011;11382;48.086;11.632;2024-02-14T07:16:12;3.15;;;1.02;;
22429;SDS011;11382;48.086;11.632;2024-02-14T07:18:40;1.92;;;1.30;;
22429;SDS011;11382;48.086;11.632;2024-02-14T07:21:09;3.00;;;1.20;;
22429;SDS011;11382;48.086;11.632;2024-02-14T07:23:37;3.25;;;1.10;;
22429;SDS011;11382;48.086;11.632;2024-02-14T07:26:05;1.60;;;1.20;;
22429;SDS011;11382;48.086;11.632;2024-02-14T07:28:35;2.25;;;1.38;;
22429;SDS011;11382;48.086;11.632;2024-02-14T07:31:03;2.40;;;1.30;;
22429;SDS011;11382;48.086;11.632;2024-02-14T07:33:31;1.23;;;0.93;;
22429;SDS011;11382;48.086;11.632;2024-02-14T07:35:59;3.33;;;0.90;;
22429;SDS011;11382;48.086;11.632;2024-02-14T07:38:27;1.20;;;1.00;;
22429;SDS011;11382;48.086;11.632;2024-02-14T07:40:56;1.70;;;1.13;;
22429;SDS011;11382;48.086;11.632;2024-02-14T07:43:24;1.48;;;1.08;;
22429;SDS011;11382;48.086;11.632;2024-02-14T07:45:53;1.60;;;0.80;;
22429;SDS011;11382;48.086;11.632;2024-02-14T07:48:21;3.40;;;1.15;;
22429;SDS011;11382;48.086;11.632;2024-02-14T07:50:49;1.70;;;0.80;;
22429;SDS011;11382;48.086;11.632;2024-02-14T07:53:18;2.63;;;1.00;;
22429;SDS011;11382;48.086;11.632;2024-02-14T07:55:46;4.05;;;1.20;;
22429;SDS011;11382;48.086;11.632;2024-02-14T07:58:15;3.85;;;1.40;;
22429;SDS011;11382;48.086;11.632;2024-02-14T08:00:44;2.83;;;0.98;;
22429;SDS011;11382;48.086;11.632;2024-02-14T08:03:13;3.35;;;1.30;;
22429;SDS011;11382;48.086;11.632;2024-02-14T08:05:41;1.73;;;1.02;;
22429;SDS011;11382;48.086;11.632;2024-02-14T08:08:09;3.08;;;1.25;;
22429;SDS011;11382;48.086;11.632;2024-02-14T08:10:37;1.35;;;1.00;;
22429;SDS011;11382;48.086;11.632;2024-02-14T08:13:06;2.40;;;0.98;;
22429;SDS011;11382;48.086;11.632;2024-02-14T08:15:34;2.92;;;1.00;;
22429;SDS011;11382;48.086;11.632;2024-02-14T08:18:04;1.83;;;1.05;;
22429;SDS011;11382;48.086;11.632;2024-02-14T08:20:37;1.92;;;1.23;;
22429;SDS011;11382;48.086;11.632;2024-02-14T08:23:05;2.67;;;0.88;;
22429;SDS011;11382;48.086;11.632;2024-02-14T08:25:34;1.25;;;0.95;;
22429;SDS011;11382;48.086;11.632;2024-02-14T08:28:02;2.30;;;1.00;;
22429;SDS011;11382;48.086;11.632;2024-02-14T08:30:30;1.52;;;1.00;;
22429;SDS011;11382;48.086;11.632;2024-02-14T08:32:58;2.75;;;1.20;;
22429;SDS011;11382;48.086;11.632;2024-02-14T08:35:26;3.10;;;1.23;;
22429;SDS011;11382;48.086;11.632;2024-02-14T08:37:56;2.15;;;1.10;;
22429;SDS011;11382;48.086;11.632;2024-02-14T08:40:24;1.92;;;1.10;;
22429;SDS011;11382;48.086;11.632;2024-02-14T08:42:53;2.35;;;1.45;;
22429;SDS011;11382;48.086;11.632;2024-02-14T08:45:21;1.30;;;1.08;;
22429;SDS011;11382;48.086;11.632;2024-02-14T08:47:49;2.22;;;1.33;;
22429;SDS011;11382;48.086;11.632;2024-02-14T08:50:17;1.30;;;1.02;;
22429;SDS011;11382;48.086;11.632;2024-02-14T08:52:45;2.97;;;1.30;;
22429;SDS011;11382;48.086;11.632;2024-02-14T08:55:15;3.80;;;1.50;;
22429;SDS011;11382;48.086;11.632;2024-02-14T08:57:44;5.38;;;1.85;;
22429;SDS011;11382;48.086;11.632;2024-02-14T09:00:14;3.03;;;1.85;;
22429;SDS011;11382;48.086;11.632;2024-02-14T09:02:46;3.10;;;2.22;;
22429;SDS011;11382;48.086;11.632;2024-02-14T09:05:14;1.10;;;1.00;;
22429;SDS011;11382;48.086;11.632;2024-02-14T09:07:44;1.00;;;0.85;;
22429;SDS011;11382;48.086;11.632;2024-02-14T09:10:12;1.70;;;1.15;;
22429;SDS011;11382;48.086;11.632;2024-02-14T09:12:42;1.30;;;1.20;;
22429;SDS011;11382;48.086;11.632;2024-02-14T09:15:10;2.25;;;1.27;;
22429;SDS011;11382;48.086;11.632;2024-02-14T09:17:38;1.80;;;0.98;;
22429;SDS011;11382;48.086;11.632;2024-02-14T09:20:08;2.08;;;1.27;;
22429;SDS011;11382;48.086;11.632;2024-02-14T09:22:37;2.05;;;1.05;;
22429;SDS011;11382;48.086;11.632;2024-02-14T09:25:07;1.50;;;1.00;;
22429;SDS011;11382;48.086;11.632;2024-02-14T09:27:36;2.35;;;1.02;;
22429;SDS011;11382;48.086;11.632;2024-02-14T09:30:06;1.52;;;0.90;;
22429;SDS011;11382;48.086;11.632;2024-02-14T09:32:49;1.60;;;1.10;;
22429;SDS011;11382;48.086;11.632;2024-02-14T09:35:18;1.25;;;1.00;;
22429;SDS011;11382;48.086;11.632;2024-02-14T09:37:46;1.73;;;1.10;;
22429;SDS011;11382;48.086;11.632;2024-02-14T09:40:14;1.58;;;0.95;;
22429;SDS011;11382;48.086;11.632;2024-02-14T09:42:43;2.30;;;1.00;;
22429;SDS011;11382;48.086;11.632;2024-02-14T09:45:17;3.25;;;0.90;;
22429;SDS011;11382;48.086;11.632;2024-02-14T09:47:51;1.90;;;1.10;;
22429;SDS011;11382;48.086;11.632;2024-02-14T09:50:20;3.67;;;1.10;;
22429;SDS011;11382;48.086;11.632;2024-02-14T09:52:48;1.73;;;1.02;;
22429;SDS011;11382;48.086;11.632;2024-02-14T09:55:17;1.50;;;1.15;;
22429;SDS011;11382;48.086;11.632;2024-02-14T09:57:45;0.98;;;0.82;;
22429;SDS011;11382;48.086;11.632;2024-02-14T10:00:18;1.05;;;0.73;;
22429;SDS011;11382;48.086;11.632;2024-02-14T10:02:46;3.85;;;0.90;;
22429;SDS011;11382;48.086;11.632;2024-02-14T10:05:14;1.13;;;0.60;;
22429;SDS011;11382;48.086;11.632;2024-02-14T10:07:43;2.88;;;0.88;;
22429;SDS011;11382;48.086;11.632;2024-02-14T10:10:13;1.88;;;0.93;;
22429;SDS011;11382;48.086;11.632;2024-02-14T10:12:41;1.67;;;1.13;;
22429;SDS011;11382;48.086;11.632;2024-02-14T10:15:09;1.73;;;0.95;;
22429;SDS011;11382;48.086;11.632;2024-02-14T10:17:39;3.33;;;1.15;;
22429;SDS011;11382;48.086;11.632;2024-02-14T10:20:08;1.58;;;0.90;;
22429;SDS011;11382;48.086;11.632;2024-02-14T10:22:38;3.08;;;1.00;;
22429;SDS011;11382;48.086;11.632;2024-02-14T10:25:07;1.75;;;1.05;;
22429;SDS011;11382;48.086;11.632;2024-02-14T10:27:36;1.15;;;0.80;;
22429;SDS011;11382;48.086;11.632;2024-02-14T10:30:05;0.88;;;0.70;;
22429;SDS011;11382;48.086;11.632;2024-02-14T10:32:36;1.52;;;0.88;;
22429;SDS011;11382;48.086;11.632;2024-02-14T10:35:07;3.17;;;1.40;;
22429;SDS011;11382;48.086;11.632;2024-02-14T10:37:38;2.00;;;1.10;;
22429;SDS011;11382;48.086;11.632;2024-02-14T10:40:06;2.30;;;1.25;;
22429;SDS011;11382;48.086;11.632;2024-02-14T10:42:36;1.23;;;1.13;;
22429;SDS011;11382;48.086;11.632;2024-02-14T10:45:04;2.83;;;1.00;;
22429;SDS011;11382;48.086;11.632;2024-02-14T10:47:34;0.80;;;0.70;;
22429;SDS011;11382;48.086;11.632;2024-02-14T10:50:04;1.27;;;0.70;;
22429;SDS011;11382;48.086;11.632;2024-02-14T10:52:36;1.77;;;1.00;;
22429;SDS011;11382;48.086;11.632;2024-02-14T10:55:06;2.55;;;0.98;;
22429;SDS011;11382;48.086;11.632;2024-02-14T10:57:35;3.03;;;0.75;;
22429;SDS011;11382;48.086;11.632;2024-02-14T11:00:04;1.75;;;1.15;;
22429;SDS011;11382;48.086;11.632;2024-02-14T11:02:36;1.20;;;0.85;;
22429;SDS011;11382;48.086;11.632;2024-02-14T11:05:07;1.48;;;0.88;;
22429;SDS011;11382;48.086;11.632;2024-02-14T11:07:44;1.92;;;0.90;;
22429;SDS011;11382;48.086;11.632;2024-02-14T11:10:13;0.93;;;0.70;;
22429;SDS011;11382;48.086;11.632;2024-02-14T11:12:43;1.10;;;0.60;;
22429;SDS011;11382;48.086;11.632;2024-02-14T11:15:12;1.23;;;0.70;;
22429;SDS011;11382;48.086;11.632;2024-02-14T11:17:45;1.00;;;0.63;;
22429;SDS011;11382;48.086;11.632;2024-02-14T11:20:17;1.13;;;0.65;;
22429;SDS011;11382;48.086;11.632;2024-02-14T11:22:50;0.80;;;0.52;;
22429;SDS011;11382;48.086;11.632;2024-02-14T11:25:22;0.40;;;0.40;;
22429;SDS011;11382;48.086;11.632;2024-02-14T11:27:57;2.15;;;0.43;;
22429;SDS011;11382;48.086;11.632;2024-02-14T11:30:26;1.23;;;0.75;;
22429;SDS011;11382;48.086;11.632;2024-02-14T11:33:14;1.23;;;0.60;;
22429;SDS011;11382;48.086;11.632;2024-02-14T11:35:46;0.77;;;0.57;;
22429;SDS011;11382;48.086;11.632;2024-02-14T11:38:18;0.82;;;0.50;;
22429;SDS011;11382;48.086;11.632;2024-02-14T11:40:47;1.67;;;0.60;;
22429;SDS011;11382;48.086;11.632;2024-02-14T11:43:18;5.07;;;0.70;;
22429;SDS011;11382;48.086;11.632;2024-02-14T11:45:47;2.83;;;0.55;;
22429;SDS011;11382;48.086;11.632;2024-02-14T11:48:16;2.17;;;0.73;;
22429;SDS011;11382;48.086;11.632;2024-02-14T11:50:47;0.65;;;0.55;;
22429;SDS011;11382;48.086;11.632;2024-02-14T11:53:15;0.93;;;0.60;;
22429;SDS011;11382;48.086;11.632;2024-02-14T11:55:45;0.77;;;0.60;;
22429;SDS011;11382;48.086;11.632;2024-02-14T11:58:14;0.90;;;0.50;;
22429;SDS011;11382;48.086;11.632;2024-02-14T12:00:44;2.20;;;0.65;;
22429;SDS011;11382;48.086;11.632;2024-02-14T12:03:15;0.98;;;0.50;;
22429;SDS011;11382;48.086;11.632;2024-02-14T12:05:47;1.23;;;0.50;;
22429;SDS011;11382;48.086;11.632;2024-02-14T12:08:17;0.55;;;0.47;;
22429;SDS011;11382;48.086;11.632;2024-02-14T12:10:46;0.70;;;0.45;;
22429;SDS011;11382;48.086;11.632;2024-02-14T12:13:17;0.85;;;0.68;;
22429;SDS011;11382;48.086;11.632;2024-02-14T12:15:47;0.70;;;0.60;;
22429;SDS011;11382;48.086;11.632;2024-02-14T12:18:17;0.75;;;0.60;;
22429;SDS011;11382;48.086;11.632;2024-02-14T12:20:48;0.73;;;0.50;;
22429;SDS011;11382;48.086;11.632;2024-02-14T12:23:22;0.60;;;0.60;;
22429;SDS011;11382;48.086;11.632;2024-02-14T12:25:53;0.98;;;0.70;;
22429;SDS011;11382;48.086;11.632;2024-02-14T12:28:22;0.57;;;0.50;;
22429;SDS011;11382;48.086;11.632;2024-02-14T12:30:51;0.85;;;0.50;;
22429;SDS011;11382;48.086;11.632;2024-02-14T12:33:23;1.57;;;0.63;;
22429;SDS011;11382;48.086;11.632;2024-02-14T12:35:54;1.92;;;0.60;;
22429;SDS011;11382;48.086;11.632;2024-02-14T12:38:24;1.30;;;0.60;;
22429;SDS011;11382;48.086;11.632;2024-02-14T12:40:52;0.40;;;0.40;;
22429;SDS011;11382;48.086;11.632;2024-02-14T12:43:21;1.23;;;0.50;;
22429;SDS011;11382;48.086;11.632;2024-02-14T12:45:49;0.98;;;0.60;;
22429;SDS011;11382;48.086;11.632;2024-02-14T12:48:21;0.73;;;0.60;;
22429;SDS011;11382;48.086;11.632;2024-02-14T12:50:54;1.40;;;0.80;;
22429;SDS011;11382;48.086;11.632;2024-02-14T12:53:23;1.83;;;0.80;;
22429;SDS011;11382;48.086;11.632;2024-02-14T12:55:51;0.77;;;0.75;;
22429;SDS011;11382;48.086;11.632;2024-02-14T12:58:19;1.92;;;0.55;;
22429;SDS011;11382;48.086;11.632;2024-02-14T13:00:47;0.40;;;0.40;;
22429;SDS011;11382;48.086;11.632;2024-02-14T13:03:16;8.63;;;0.70;;
22429;SDS011;11382;48.086;11.632;2024-02-14T13:05:44;0.82;;;0.60;;
22429;SDS011;11382;48.086;11.632;2024-02-14T13:08:15;1.95;;;0.60;;
22429;SDS011;11382;48.086;11.632;2024-02-14T13:10:44;3.55;;;0.80;;
22429;SDS011;11382;48.086;11.632;2024-02-14T13:13:12;2.00;;;0.80;;
22429;SDS011;11382;48.086;11.632;2024-02-14T13:15:41;0.95;;;0.60;;
22429;SDS011;11382;48.086;11.632;2024-02-14T13:18:11;0.95;;;0.60;;
22429;SDS011;11382;48.086;11.632;2024-02-14T13:20:39;0.60;;;0.60;;
22429;SDS011;11382;48.086;11.632;2024-02-14T13:23:09;1.17;;;0.50;;
22429;SDS011;11382;48.086;11.632;2024-02-14T13:25:38;2.05;;;0.70;;
22429;SDS011;11382;48.086;11.632;2024-02-14T13:28:06;0.65;;;0.55;;
22429;SDS011;11382;48.086;11.632;2024-02-14T13:30:35;0.80;;;0.50;;
22429;SDS011;11382;48.086;11.632;2024-02-14T13:33:04;0.63;;;0.40;;
22429;SDS011;11382;48.086;11.632;2024-02-14T13:35:33;1.75;;;0.85;;
22429;SDS011;11382;48.086;11.632;2024-02-14T13:38:05;0.40;;;0.40;;
22429;SDS011;11382;48.086;11.632;2024-02-14T13:40:33;0.80;;;0.43;;
22429;SDS011;11382;48.086;11.632;2024-02-14T13:43:02;1.05;;;0.47;;
22429;SDS011;11382;48.086;11.632;2024-02-14T13:45:39;1.15;;;0.60;;
22429;SDS011;11382;48.086;11.632;2024-02-14T13:48:09;1.02;;;0.50;;
22429;SDS011;11382;48.086;11.632;2024-02-14T13:50:39;1.02;;;0.60;;
22429;SDS011;11382;48.086;11.632;2024-02-14T13:53:09;0.50;;;0.43;;
22429;SDS011;11382;48.086;11.632;2024-02-14T13:55:37;0.88;;;0.60;;
22429;SDS011;11382;48.086;11.632;2024-02-14T13:58:07;0.93;;;0.50;;
22429;SDS011;11382;48.086;11.632;2024-02-14T14:00:41;1.58;;;0.80;;
22429;SDS011;11382;48.086;11.632;2024-02-14T14:03:09;1.20;;;0.73;;
22429;SDS011;11382;48.086;11.632;2024-02-14T14:05:38;0.95;;;0.50;;
22429;SDS011;11382;48.086;11.632;2024-02-14T14:08:06;3.72;;;0.70;;
22429;SDS011;11382;48.086;11.632;2024-02-14T14:10:34;0.95;;;0.57;;
22429;SDS011;11382;48.086;11.632;2024-02-14T14:13:02;1.48;;;0.70;;
22429;SDS011;11382;48.086;11.632;2024-02-14T14:15:32;2.97;;;0.70;;
22429;SDS011;11382;48.086;11.632;2024-02-14T14:18:00;1.08;;;0.50;;
22429;SDS011;11382;48.086;11.632;2024-02-14T14:20:29;3.15;;;0.50;;
22429;SDS011;11382;48.086;11.632;2024-02-14T14:22:57;1.13;;;0.47;;
22429;SDS011;11382;48.086;11.632;2024-02-14T14:25:26;1.40;;;0.60;;
22429;SDS011;11382;48.086;11.632;2024-02-14T14:27:55;0.60;;;0.50;;
22429;SDS011;11382;48.086;11.632;2024-02-14T14:30:25;0.82;;;0.60;;
22429;SDS011;11382;48.086;11.632;2024-02-14T14:32:54;1.15;;;0.40;;
22429;SDS011;11382;48.086;11.632;2024-02-14T14:35:22;1.25;;;0.57;;
22429;SDS011;11382;48.086;11.632;2024-02-14T14:37:50;6.40;;;0.50;;
22429;SDS011;11382;48.086;11.632;2024-02-14T14:40:20;0.40;;;0.40;;
22429;SDS011;11382;48.086;11.632;2024-02-14T14:42:49;0.63;;;0.50;;
22429;SDS011;11382;48.086;11.632;2024-02-14T14:45:17;1.58;;;0.52;;